sensor_id;sensor_type;location;lat;lon;timestamp;temperature;humidity
70074;DHT22;57445;51.058;3.698;2022-07-30T00:01:07;18.70;85.20
70074;DHT22;57445;51.058;3.698;2022-07-30T00:03:34;18.70;85.00
70074;DHT22;57445;51.058;3.698;2022-07-30T00:06:01;18.70;85.10
70074;DHT22;57445;51.058;3.698;2022-07-30T00:08:28;18.50;85.60
70074;DHT22;57445;51.058;3.698;2022-07-30T00:10:55;18.40;86.20
70074;DHT22;57445;51.058;3.698;2022-07-30T00:13:22;18.30;86.50
70074;DHT22;57445;51.058;3.698;2022-07-30T00:15:52;18.30;86.30
70074;DHT22;57445;51.058;3.698;2022-07-30T00:18:19;18.30;86.40
70074;DHT22;57445;51.058;3.698;2022-07-30T00:20:46;18.40;86.60
70074;DHT22;57445;51.058;3.698;2022-07-30T00:23:12;18.20;86.90
70074;DHT22;57445;51.058;3.698;2022-07-30T00:25:39;18.10;87.00
70074;DHT22;57445;51.058;3.698;2022-07-30T00:28:06;18.00;87.60
70074;DHT22;57445;51.058;3.698;2022-07-30T00:30:33;17.90;88.10
70074;DHT22;57445;51.058;3.698;2022-07-30T00:33:01;17.80;88.40
70074;DHT22;57445;51.058;3.698;2022-07-30T00:35:28;17.80;87.90
70074;DHT22;57445;51.058;3.698;2022-07-30T00:37:55;18.00;87.30
70074;DHT22;57445;51.058;3.698;2022-07-30T00:40:23;18.00;87.10
70074;DHT22;57445;51.058;3.698;2022-07-30T00:42:50;18.00;86.80
70074;DHT22;57445;51.058;3.698;2022-07-30T00:45:17;18.00;86.90
70074;DHT22;57445;51.058;3.698;2022-07-30T00:47:44;17.80;87.60
70074;DHT22;57445;51.058;3.698;2022-07-30T00:50:14;17.70;87.50
70074;DHT22;57445;51.058;3.698;2022-07-30T00:52:41;17.70;87.80
70074;DHT22;57445;51.058;3.698;2022-07-30T00:55:11;17.80;87.50
70074;DHT22;57445;51.058;3.698;2022-07-30T00:57:39;18.00;87.00
70074;DHT22;57445;51.058;3.698;2022-07-30T01:00:09;17.90;87.00
70074;DHT22;57445;51.058;3.698;2022-07-30T01:02:37;17.80;87.20
70074;DHT22;57445;51.058;3.698;2022-07-30T01:05:05;17.80;87.40
70074;DHT22;57445;51.058;3.698;2022-07-30T01:07:34;17.90;87.30
70074;DHT22;57445;51.058;3.698;2022-07-30T01:10:01;17.80;86.70
70074;DHT22;57445;51.058;3.698;2022-07-30T01:12:29;17.60;87.00
70074;DHT22;57445;51.058;3.698;2022-07-30T01:14:57;17.60;87.10
70074;DHT22;57445;51.058;3.698;2022-07-30T01:17:25;17.60;87.40
70074;DHT22;57445;51.058;3.698;2022-07-30T01:19:58;17.50;88.00
70074;DHT22;57445;51.058;3.698;2022-07-30T01:22:42;17.30;89.40
70074;DHT22;57445;51.058;3.698;2022-07-30T01:25:15;17.10;90.20
70074;DHT22;57445;51.058;3.698;2022-07-30T01:27:47;16.90;90.60
70074;DHT22;57445;51.058;3.698;2022-07-30T01:30:22;16.90;90.70
70074;DHT22;57445;51.058;3.698;2022-07-30T01:32:53;17.00;90.60
70074;DHT22;57445;51.058;3.698;2022-07-30T01:35:22;17.10;90.30
70074;DHT22;57445;51.058;3.698;2022-07-30T01:37:52;17.20;90.00
70074;DHT22;57445;51.058;3.698;2022-07-30T01:40:20;17.30;90.00
70074;DHT22;57445;51.058;3.698;2022-07-30T01:42:51;17.10;90.10
70074;DHT22;57445;51.058;3.698;2022-07-30T01:45:22;17.00;90.30
70074;DHT22;57445;51.058;3.698;2022-07-30T01:47:50;17.10;90.10
70074;DHT22;57445;51.058;3.698;2022-07-30T01:50:19;17.20;89.70
70074;DHT22;57445;51.058;3.698;2022-07-30T01:52:48;17.30;89.10
70074;DHT22;57445;51.058;3.698;2022-07-30T01:55:19;17.50;88.30
70074;DHT22;57445;51.058;3.698;2022-07-30T01:57:49;17.60;88.20
70074;DHT22;57445;51.058;3.698;2022-07-30T02:00:17;17.40;88.50
70074;DHT22;57445;51.058;3.698;2022-07-30T02:02:45;17.20;88.90
70074;DHT22;57445;51.058;3.698;2022-07-30T02:05:12;17.20;89.30
70074;DHT22;57445;51.058;3.698;2022-07-30T02:07:44;17.00;90.10
70074;DHT22;57445;51.058;3.698;2022-07-30T02:10:16;17.00;90.20
70074;DHT22;57445;51.058;3.698;2022-07-30T02:12:49;17.10;90.00
70074;DHT22;57445;51.058;3.698;2022-07-30T02:15:22;17.10;89.90
70074;DHT22;57445;51.058;3.698;2022-07-30T02:17:55;17.10;89.70
70074;DHT22;57445;51.058;3.698;2022-07-30T02:20:26;17.40;89.70
70074;DHT22;57445;51.058;3.698;2022-07-30T02:22:57;17.20;89.60
70074;DHT22;57445;51.058;3.698;2022-07-30T02:25:26;17.20;89.30
70074;DHT22;57445;51.058;3.698;2022-07-30T02:27:57;17.40;88.70
70074;DHT22;57445;51.058;3.698;2022-07-30T02:30:30;17.40;88.30
70074;DHT22;57445;51.058;3.698;2022-07-30T02:33:02;17.50;88.00
70074;DHT22;57445;51.058;3.698;2022-07-30T02:35:31;17.70;87.80
70074;DHT22;57445;51.058;3.698;2022-07-30T02:37:59;17.50;87.60
70074;DHT22;57445;51.058;3.698;2022-07-30T02:40:27;17.70;86.00
70074;DHT22;57445;51.058;3.698;2022-07-30T02:42:55;18.00;85.10
70074;DHT22;57445;51.058;3.698;2022-07-30T02:45:23;18.00;84.60
70074;DHT22;57445;51.058;3.698;2022-07-30T02:47:55;17.90;84.70
70074;DHT22;57445;51.058;3.698;2022-07-30T02:50:23;17.90;85.20
70074;DHT22;57445;51.058;3.698;2022-07-30T02:52:52;17.90;84.90
70074;DHT22;57445;51.058;3.698;2022-07-30T02:55:20;17.70;85.70
70074;DHT22;57445;51.058;3.698;2022-07-30T02:57:49;17.50;86.80
70074;DHT22;57445;51.058;3.698;2022-07-30T03:00:17;17.30;87.90
70074;DHT22;57445;51.058;3.698;2022-07-30T03:02:45;17.20;88.50
70074;DHT22;57445;51.058;3.698;2022-07-30T03:05:14;17.10;89.00
70074;DHT22;57445;51.058;3.698;2022-07-30T03:07:43;16.90;89.70
70074;DHT22;57445;51.058;3.698;2022-07-30T03:10:11;17.10;89.00
70074;DHT22;57445;51.058;3.698;2022-07-30T03:12:40;17.30;88.10
70074;DHT22;57445;51.058;3.698;2022-07-30T03:15:08;17.50;88.10
70074;DHT22;57445;51.058;3.698;2022-07-30T03:17:37;17.50;87.60
70074;DHT22;57445;51.058;3.698;2022-07-30T03:20:08;17.40;87.50
70074;DHT22;57445;51.058;3.698;2022-07-30T03:22:41;17.40;87.90
70074;DHT22;57445;51.058;3.698;2022-07-30T03:25:09;17.30;88.10
70074;DHT22;57445;51.058;3.698;2022-07-30T03:27:37;17.40;87.90
70074;DHT22;57445;51.058;3.698;2022-07-30T03:30:07;17.50;87.50
70074;DHT22;57445;51.058;3.698;2022-07-30T03:32:34;17.70;86.10
70074;DHT22;57445;51.058;3.698;2022-07-30T03:35:02;17.90;85.20
70074;DHT22;57445;51.058;3.698;2022-07-30T03:37:29;17.60;86.40
70074;DHT22;57445;51.058;3.698;2022-07-30T03:39:58;17.40;87.60
70074;DHT22;57445;51.058;3.698;2022-07-30T03:42:26;17.30;88.00
70074;DHT22;57445;51.058;3.698;2022-07-30T03:44:54;17.30;88.00
70074;DHT22;57445;51.058;3.698;2022-07-30T03:47:23;17.30;87.90
70074;DHT22;57445;51.058;3.698;2022-07-30T03:49:51;17.30;87.90
70074;DHT22;57445;51.058;3.698;2022-07-30T03:52:18;17.40;87.50
70074;DHT22;57445;51.058;3.698;2022-07-30T03:54:45;17.50;86.50
70074;DHT22;57445;51.058;3.698;2022-07-30T03:57:14;17.60;86.00
70074;DHT22;57445;51.058;3.698;2022-07-30T03:59:41;17.60;86.00
70074;DHT22;57445;51.058;3.698;2022-07-30T04:02:08;17.60;85.90
70074;DHT22;57445;51.058;3.698;2022-07-30T04:04:34;17.50;86.30
70074;DHT22;57445;51.058;3.698;2022-07-30T04:07:02;17.30;87.00
70074;DHT22;57445;51.058;3.698;2022-07-30T04:09:29;17.20;87.30
70074;DHT22;57445;51.058;3.698;2022-07-30T04:11:56;17.10;87.60
70074;DHT22;57445;51.058;3.698;2022-07-30T04:14:25;16.90;88.50
70074;DHT22;57445;51.058;3.698;2022-07-30T04:16:58;17.00;88.60
70074;DHT22;57445;51.058;3.698;2022-07-30T04:19:29;17.20;87.80
70074;DHT22;57445;51.058;3.698;2022-07-30T04:21:58;17.20;87.40
70074;DHT22;57445;51.058;3.698;2022-07-30T04:24:28;16.90;88.20
70074;DHT22;57445;51.058;3.698;2022-07-30T04:26:58;16.80;89.00
70074;DHT22;57445;51.058;3.698;2022-07-30T04:29:27;16.80;89.00
70074;DHT22;57445;51.058;3.698;2022-07-30T04:31:55;17.00;88.60
70074;DHT22;57445;51.058;3.698;2022-07-30T04:34:22;17.20;87.50
70074;DHT22;57445;51.058;3.698;2022-07-30T04:36:49;17.40;86.10
70074;DHT22;57445;51.058;3.698;2022-07-30T04:39:16;17.60;85.40
70074;DHT22;57445;51.058;3.698;2022-07-30T04:41:42;17.60;85.30
70074;DHT22;57445;51.058;3.698;2022-07-30T04:44:09;17.60;85.50
70074;DHT22;57445;51.058;3.698;2022-07-30T04:46:37;17.60;85.50
70074;DHT22;57445;51.058;3.698;2022-07-30T04:49:04;17.50;85.70
70074;DHT22;57445;51.058;3.698;2022-07-30T04:51:34;17.60;85.70
70074;DHT22;57445;51.058;3.698;2022-07-30T04:54:06;17.70;85.20
70074;DHT22;57445;51.058;3.698;2022-07-30T04:56:35;17.90;84.80
70074;DHT22;57445;51.058;3.698;2022-07-30T04:59:03;18.00;84.80
70074;DHT22;57445;51.058;3.698;2022-07-30T05:01:34;17.80;84.70
70074;DHT22;57445;51.058;3.698;2022-07-30T05:04:04;17.80;85.00
70074;DHT22;57445;51.058;3.698;2022-07-30T05:06:33;17.90;84.70
70074;DHT22;57445;51.058;3.698;2022-07-30T05:09:00;18.10;84.10
70074;DHT22;57445;51.058;3.698;2022-07-30T05:11:27;18.20;84.10
70074;DHT22;57445;51.058;3.698;2022-07-30T05:13:54;18.20;84.40
70074;DHT22;57445;51.058;3.698;2022-07-30T05:16:21;18.20;84.60
70074;DHT22;57445;51.058;3.698;2022-07-30T05:18:49;18.20;84.40
70074;DHT22;57445;51.058;3.698;2022-07-30T05:21:17;18.10;84.40
70074;DHT22;57445;51.058;3.698;2022-07-30T05:23:44;17.80;85.80
70074;DHT22;57445;51.058;3.698;2022-07-30T05:26:11;17.60;87.10
70074;DHT22;57445;51.058;3.698;2022-07-30T05:28:38;17.50;87.60
70074;DHT22;57445;51.058;3.698;2022-07-30T05:31:05;17.50;87.80
70074;DHT22;57445;51.058;3.698;2022-07-30T05:33:32;17.60;88.40
70074;DHT22;57445;51.058;3.698;2022-07-30T05:35:59;17.80;87.80
70074;DHT22;57445;51.058;3.698;2022-07-30T05:38:29;17.90;87.40
70074;DHT22;57445;51.058;3.698;2022-07-30T05:40:56;18.50;86.20
70074;DHT22;57445;51.058;3.698;2022-07-30T05:43:23;19.10;83.10
70074;DHT22;57445;51.058;3.698;2022-07-30T05:45:50;20.00;80.60
70074;DHT22;57445;51.058;3.698;2022-07-30T05:48:17;20.30;78.70
70074;DHT22;57445;51.058;3.698;2022-07-30T05:50:43;20.80;77.00
70074;DHT22;57445;51.058;3.698;2022-07-30T05:53:11;21.20;75.40
70074;DHT22;57445;51.058;3.698;2022-07-30T05:55:40;20.90;74.90
70074;DHT22;57445;51.058;3.698;2022-07-30T05:58:07;21.10;75.30
70074;DHT22;57445;51.058;3.698;2022-07-30T06:00:37;21.40;74.10
70074;DHT22;57445;51.058;3.698;2022-07-30T06:03:04;22.10;72.10
70074;DHT22;57445;51.058;3.698;2022-07-30T06:05:31;22.70;70.10
70074;DHT22;57445;51.058;3.698;2022-07-30T06:07:58;23.20;68.40
70074;DHT22;57445;51.058;3.698;2022-07-30T06:10:25;23.80;66.50
70074;DHT22;57445;51.058;3.698;2022-07-30T06:12:53;23.80;66.00
70074;DHT22;57445;51.058;3.698;2022-07-30T06:15:20;24.10;65.20
70074;DHT22;57445;51.058;3.698;2022-07-30T06:17:47;24.50;64.10
70074;DHT22;57445;51.058;3.698;2022-07-30T06:20:16;23.70;66.20
70074;DHT22;57445;51.058;3.698;2022-07-30T06:22:43;23.80;66.20
70074;DHT22;57445;51.058;3.698;2022-07-30T06:25:11;24.50;64.70
70074;DHT22;57445;51.058;3.698;2022-07-30T06:27:38;25.10;62.60
70074;DHT22;57445;51.058;3.698;2022-07-30T06:30:08;25.70;60.50
70074;DHT22;57445;51.058;3.698;2022-07-30T06:32:36;26.10;59.50
70074;DHT22;57445;51.058;3.698;2022-07-30T06:35:04;26.10;60.00
70074;DHT22;57445;51.058;3.698;2022-07-30T06:37:31;26.30;59.70
70074;DHT22;57445;51.058;3.698;2022-07-30T06:39:58;26.50;59.20
70074;DHT22;57445;51.058;3.698;2022-07-30T06:42:25;26.80;58.40
70074;DHT22;57445;51.058;3.698;2022-07-30T06:44:53;26.90;58.20
70074;DHT22;57445;51.058;3.698;2022-07-30T06:47:21;27.00;57.80
70074;DHT22;57445;51.058;3.698;2022-07-30T06:49:54;27.30;56.60
70074;DHT22;57445;51.058;3.698;2022-07-30T06:52:21;27.60;55.20
70074;DHT22;57445;51.058;3.698;2022-07-30T06:54:48;28.00;55.00
70074;DHT22;57445;51.058;3.698;2022-07-30T06:57:15;28.10;55.30
70074;DHT22;57445;51.058;3.698;2022-07-30T06:59:42;27.80;55.70
70074;DHT22;57445;51.058;3.698;2022-07-30T07:02:09;28.10;54.40
70074;DHT22;57445;51.058;3.698;2022-07-30T07:04:38;28.10;54.30
70074;DHT22;57445;51.058;3.698;2022-07-30T07:07:05;28.20;54.70
70074;DHT22;57445;51.058;3.698;2022-07-30T07:09:32;28.20;53.60
70074;DHT22;57445;51.058;3.698;2022-07-30T07:11:59;28.30;52.60
70074;DHT22;57445;51.058;3.698;2022-07-30T07:14:26;28.00;53.10
70074;DHT22;57445;51.058;3.698;2022-07-30T07:16:53;27.40;54.20
70074;DHT22;57445;51.058;3.698;2022-07-30T07:19:19;26.40;56.70
70074;DHT22;57445;51.058;3.698;2022-07-30T07:21:48;25.70;58.40
70074;DHT22;57445;51.058;3.698;2022-07-30T07:24:15;25.50;59.30
70074;DHT22;57445;51.058;3.698;2022-07-30T07:26:42;24.80;60.20
70074;DHT22;57445;51.058;3.698;2022-07-30T07:29:09;24.80;58.90
70074;DHT22;57445;51.058;3.698;2022-07-30T07:31:36;24.60;58.90
70074;DHT22;57445;51.058;3.698;2022-07-30T07:34:03;24.50;60.00
70074;DHT22;57445;51.058;3.698;2022-07-30T07:36:29;24.40;59.80
70074;DHT22;57445;51.058;3.698;2022-07-30T07:38:58;24.60;59.00
70074;DHT22;57445;51.058;3.698;2022-07-30T07:41:25;25.00;57.50
70074;DHT22;57445;51.058;3.698;2022-07-30T07:43:52;25.40;55.20
70074;DHT22;57445;51.058;3.698;2022-07-30T07:46:19;25.00;55.50
70074;DHT22;57445;51.058;3.698;2022-07-30T07:48:46;25.20;55.70
70074;DHT22;57445;51.058;3.698;2022-07-30T07:51:13;25.20;56.30
70074;DHT22;57445;51.058;3.698;2022-07-30T07:53:40;24.80;55.60
70074;DHT22;57445;51.058;3.698;2022-07-30T07:56:08;25.30;54.90
70074;DHT22;57445;51.058;3.698;2022-07-30T07:58:35;25.30;53.90
70074;DHT22;57445;51.058;3.698;2022-07-30T08:01:02;25.00;54.40
70074;DHT22;57445;51.058;3.698;2022-07-30T08:03:29;25.30;55.10
70074;DHT22;57445;51.058;3.698;2022-07-30T08:05:56;25.60;53.70
70074;DHT22;57445;51.058;3.698;2022-07-30T08:08:23;25.70;53.30
70074;DHT22;57445;51.058;3.698;2022-07-30T08:10:50;26.00;51.80
70074;DHT22;57445;51.058;3.698;2022-07-30T08:13:20;26.10;51.00
70074;DHT22;57445;51.058;3.698;2022-07-30T08:15:48;25.90;51.90
70074;DHT22;57445;51.058;3.698;2022-07-30T08:18:15;25.70;52.60
70074;DHT22;57445;51.058;3.698;2022-07-30T08:20:42;25.70;51.50
70074;DHT22;57445;51.058;3.698;2022-07-30T08:23:09;25.10;51.90
70074;DHT22;57445;51.058;3.698;2022-07-30T08:25:35;24.80;52.00
70074;DHT22;57445;51.058;3.698;2022-07-30T08:28:03;23.90;53.80
70074;DHT22;57445;51.058;3.698;2022-07-30T08:30:31;23.20;56.20
70074;DHT22;57445;51.058;3.698;2022-07-30T08:32:58;23.20;55.90
70074;DHT22;57445;51.058;3.698;2022-07-30T08:35:25;24.10;56.30
70074;DHT22;57445;51.058;3.698;2022-07-30T08:37:52;24.00;56.80
70074;DHT22;57445;51.058;3.698;2022-07-30T08:40:19;24.00;57.90
70074;DHT22;57445;51.058;3.698;2022-07-30T08:42:46;24.40;56.10
70074;DHT22;57445;51.058;3.698;2022-07-30T08:45:14;25.10;53.90
70074;DHT22;57445;51.058;3.698;2022-07-30T08:47:47;25.60;51.10
70074;DHT22;57445;51.058;3.698;2022-07-30T08:50:15;25.60;51.60
70074;DHT22;57445;51.058;3.698;2022-07-30T08:52:42;25.60;51.60
70074;DHT22;57445;51.058;3.698;2022-07-30T08:55:10;26.00;50.60
70074;DHT22;57445;51.058;3.698;2022-07-30T08:57:37;26.50;49.80
70074;DHT22;57445;51.058;3.698;2022-07-30T09:00:06;26.20;50.90
70074;DHT22;57445;51.058;3.698;2022-07-30T09:02:33;26.40;49.90
70074;DHT22;57445;51.058;3.698;2022-07-30T09:05:02;25.90;49.90
70074;DHT22;57445;51.058;3.698;2022-07-30T09:07:31;24.90;51.90
70074;DHT22;57445;51.058;3.698;2022-07-30T09:09:58;24.40;53.90
70074;DHT22;57445;51.058;3.698;2022-07-30T09:12:32;25.00;53.10
70074;DHT22;57445;51.058;3.698;2022-07-30T09:15:01;25.50;51.30
70074;DHT22;57445;51.058;3.698;2022-07-30T09:17:28;26.40;49.10
70074;DHT22;57445;51.058;3.698;2022-07-30T09:20:10;27.20;48.10
70074;DHT22;57445;51.058;3.698;2022-07-30T09:22:42;27.10;47.90
70074;DHT22;57445;51.058;3.698;2022-07-30T09:25:09;26.30;50.00
70074;DHT22;57445;51.058;3.698;2022-07-30T09:27:44;25.50;51.70
70074;DHT22;57445;51.058;3.698;2022-07-30T09:30:12;25.50;52.00
70074;DHT22;57445;51.058;3.698;2022-07-30T09:32:49;26.30;50.40
70074;DHT22;57445;51.058;3.698;2022-07-30T09:35:19;25.80;49.00
70074;DHT22;57445;51.058;3.698;2022-07-30T09:37:57;25.80;49.40
70074;DHT22;57445;51.058;3.698;2022-07-30T09:40:24;26.10;48.70
70074;DHT22;57445;51.058;3.698;2022-07-30T09:43:01;26.40;48.60
70074;DHT22;57445;51.058;3.698;2022-07-30T09:45:28;27.00;47.60
70074;DHT22;57445;51.058;3.698;2022-07-30T09:47:55;27.80;46.00
70074;DHT22;57445;51.058;3.698;2022-07-30T09:50:24;28.00;45.50
70074;DHT22;57445;51.058;3.698;2022-07-30T09:52:52;28.60;44.10
70074;DHT22;57445;51.058;3.698;2022-07-30T09:55:30;28.90;42.90
70074;DHT22;57445;51.058;3.698;2022-07-30T09:57:58;29.30;42.20
70074;DHT22;57445;51.058;3.698;2022-07-30T10:00:27;29.20;41.60
70074;DHT22;57445;51.058;3.698;2022-07-30T10:02:54;29.60;41.00
70074;DHT22;57445;51.058;3.698;2022-07-30T10:05:22;29.40;40.80
70074;DHT22;57445;51.058;3.698;2022-07-30T10:07:53;29.00;41.50
70074;DHT22;57445;51.058;3.698;2022-07-30T10:10:22;29.00;41.90
70074;DHT22;57445;51.058;3.698;2022-07-30T10:12:53;27.60;44.10
70074;DHT22;57445;51.058;3.698;2022-07-30T10:15:26;26.80;46.20
70074;DHT22;57445;51.058;3.698;2022-07-30T10:17:54;26.80;45.40
70074;DHT22;57445;51.058;3.698;2022-07-30T10:20:21;26.60;46.50
70074;DHT22;57445;51.058;3.698;2022-07-30T10:22:48;26.50;46.30
70074;DHT22;57445;51.058;3.698;2022-07-30T10:25:19;26.80;44.90
70074;DHT22;57445;51.058;3.698;2022-07-30T10:27:47;27.50;43.10
70074;DHT22;57445;51.058;3.698;2022-07-30T10:30:14;28.00;42.60
70074;DHT22;57445;51.058;3.698;2022-07-30T10:32:42;27.90;43.50
70074;DHT22;57445;51.058;3.698;2022-07-30T10:35:10;28.00;43.40
70074;DHT22;57445;51.058;3.698;2022-07-30T10:37:47;28.30;42.70
70074;DHT22;57445;51.058;3.698;2022-07-30T10:40:25;28.30;42.70
70074;DHT22;57445;51.058;3.698;2022-07-30T10:43:31;28.30;43.10
70074;DHT22;57445;51.058;3.698;2022-07-30T10:46:05;28.40;43.00
70074;DHT22;57445;51.058;3.698;2022-07-30T10:48:36;28.60;43.20
70074;DHT22;57445;51.058;3.698;2022-07-30T10:51:03;28.60;43.10
70074;DHT22;57445;51.058;3.698;2022-07-30T10:53:34;28.20;43.10
70074;DHT22;57445;51.058;3.698;2022-07-30T10:56:16;28.00;43.90
70074;DHT22;57445;51.058;3.698;2022-07-30T10:59:01;28.50;42.30
70074;DHT22;57445;51.058;3.698;2022-07-30T11:04:32;29.70;40.20
70074;DHT22;57445;51.058;3.698;2022-07-30T11:07:28;30.00;40.10
70074;DHT22;57445;51.058;3.698;2022-07-30T11:09:57;29.70;41.10
70074;DHT22;57445;51.058;3.698;2022-07-30T11:12:54;29.90;39.70
70074;DHT22;57445;51.058;3.698;2022-07-30T11:15:21;30.10;39.70
70074;DHT22;57445;51.058;3.698;2022-07-30T11:18:00;29.90;40.30
70074;DHT22;57445;51.058;3.698;2022-07-30T11:20:29;29.70;40.00
70074;DHT22;57445;51.058;3.698;2022-07-30T11:23:09;29.80;39.70
70074;DHT22;57445;51.058;3.698;2022-07-30T11:25:39;29.30;40.10
70074;DHT22;57445;51.058;3.698;2022-07-30T11:28:36;29.20;40.90
70074;DHT22;57445;51.058;3.698;2022-07-30T11:33:45;26.90;44.60
70074;DHT22;57445;51.058;3.698;2022-07-30T11:36:16;26.60;45.00
70074;DHT22;57445;51.058;3.698;2022-07-30T11:38:57;27.20;44.60
70074;DHT22;57445;51.058;3.698;2022-07-30T11:41:24;27.50;44.10
70074;DHT22;57445;51.058;3.698;2022-07-30T11:44:28;27.50;44.90
70074;DHT22;57445;51.058;3.698;2022-07-30T11:46:56;28.50;43.10
70074;DHT22;57445;51.058;3.698;2022-07-30T11:49:23;28.70;42.60
70074;DHT22;57445;51.058;3.698;2022-07-30T11:51:50;29.40;41.60
70074;DHT22;57445;51.058;3.698;2022-07-30T11:54:17;29.00;41.20
70074;DHT22;57445;51.058;3.698;2022-07-30T11:56:50;28.40;42.50
70074;DHT22;57445;51.058;3.698;2022-07-30T11:59:17;27.60;43.80
70074;DHT22;57445;51.058;3.698;2022-07-30T12:01:50;27.90;43.40
70074;DHT22;57445;51.058;3.698;2022-07-30T12:04:18;28.00;43.30
70074;DHT22;57445;51.058;3.698;2022-07-30T12:06:46;28.40;43.00
70074;DHT22;57445;51.058;3.698;2022-07-30T12:09:20;29.30;42.00
70074;DHT22;57445;51.058;3.698;2022-07-30T12:11:48;30.30;39.90
70074;DHT22;57445;51.058;3.698;2022-07-30T12:14:15;31.20;38.60
70074;DHT22;57445;51.058;3.698;2022-07-30T12:16:49;31.10;38.80
70074;DHT22;57445;51.058;3.698;2022-07-30T12:19:16;31.50;37.70
70074;DHT22;57445;51.058;3.698;2022-07-30T12:21:44;31.40;38.00
70074;DHT22;57445;51.058;3.698;2022-07-30T12:24:12;31.80;37.30
70074;DHT22;57445;51.058;3.698;2022-07-30T12:26:39;31.30;38.00
70074;DHT22;57445;51.058;3.698;2022-07-30T12:29:08;30.40;38.70
70074;DHT22;57445;51.058;3.698;2022-07-30T12:31:38;29.00;40.80
70074;DHT22;57445;51.058;3.698;2022-07-30T12:34:19;28.70;41.10
70074;DHT22;57445;51.058;3.698;2022-07-30T12:36:47;29.70;40.20
70074;DHT22;57445;51.058;3.698;2022-07-30T12:39:18;30.50;38.50
70074;DHT22;57445;51.058;3.698;2022-07-30T12:41:48;31.20;36.70
70074;DHT22;57445;51.058;3.698;2022-07-30T12:44:34;31.50;36.10
70074;DHT22;57445;51.058;3.698;2022-07-30T12:47:02;30.90;36.50
70074;DHT22;57445;51.058;3.698;2022-07-30T12:49:32;29.80;38.20
70074;DHT22;57445;51.058;3.698;2022-07-30T12:51:59;29.10;39.70
70074;DHT22;57445;51.058;3.698;2022-07-30T12:54:26;28.50;40.30
70074;DHT22;57445;51.058;3.698;2022-07-30T12:56:57;28.40;40.40
70074;DHT22;57445;51.058;3.698;2022-07-30T12:59:25;28.30;40.50
70074;DHT22;57445;51.058;3.698;2022-07-30T13:01:52;28.70;40.90
70074;DHT22;57445;51.058;3.698;2022-07-30T13:04:20;28.80;39.10
70074;DHT22;57445;51.058;3.698;2022-07-30T13:07:04;29.00;39.50
70074;DHT22;57445;51.058;3.698;2022-07-30T13:09:31;29.50;38.80
70074;DHT22;57445;51.058;3.698;2022-07-30T13:11:58;30.10;37.80
70074;DHT22;57445;51.058;3.698;2022-07-30T13:14:25;31.10;37.20
70074;DHT22;57445;51.058;3.698;2022-07-30T13:16:53;31.70;35.80
70074;DHT22;57445;51.058;3.698;2022-07-30T13:19:20;31.60;35.70
70074;DHT22;57445;51.058;3.698;2022-07-30T13:21:47;31.70;35.70
70074;DHT22;57445;51.058;3.698;2022-07-30T13:24:15;31.10;35.90
70074;DHT22;57445;51.058;3.698;2022-07-30T13:26:42;31.80;35.30
70074;DHT22;57445;51.058;3.698;2022-07-30T13:29:10;32.60;34.70
70074;DHT22;57445;51.058;3.698;2022-07-30T13:31:39;32.70;34.10
70074;DHT22;57445;51.058;3.698;2022-07-30T13:34:06;32.80;33.80
70074;DHT22;57445;51.058;3.698;2022-07-30T13:36:33;32.30;33.90
70074;DHT22;57445;51.058;3.698;2022-07-30T13:39:00;30.70;36.30
70074;DHT22;57445;51.058;3.698;2022-07-30T13:41:29;30.80;36.70
70074;DHT22;57445;51.058;3.698;2022-07-30T13:43:56;30.90;36.70
70074;DHT22;57445;51.058;3.698;2022-07-30T13:46:23;30.90;36.50
70074;DHT22;57445;51.058;3.698;2022-07-30T13:48:50;30.40;37.10
70074;DHT22;57445;51.058;3.698;2022-07-30T13:51:17;29.60;37.80
70074;DHT22;57445;51.058;3.698;2022-07-30T13:53:44;29.20;39.20
70074;DHT22;57445;51.058;3.698;2022-07-30T13:56:11;29.40;38.40
70074;DHT22;57445;51.058;3.698;2022-07-30T13:58:39;29.10;39.30
70074;DHT22;57445;51.058;3.698;2022-07-30T14:01:06;29.30;39.40
70074;DHT22;57445;51.058;3.698;2022-07-30T14:03:34;30.30;38.30
70074;DHT22;57445;51.058;3.698;2022-07-30T14:06:00;30.80;37.60
70074;DHT22;57445;51.058;3.698;2022-07-30T14:08:28;31.10;36.80
70074;DHT22;57445;51.058;3.698;2022-07-30T14:10:56;31.80;36.10
70074;DHT22;57445;51.058;3.698;2022-07-30T14:13:24;32.10;35.10
70074;DHT22;57445;51.058;3.698;2022-07-30T14:15:52;31.80;35.60
70074;DHT22;57445;51.058;3.698;2022-07-30T14:18:19;31.60;35.70
70074;DHT22;57445;51.058;3.698;2022-07-30T14:20:46;30.80;36.20
70074;DHT22;57445;51.058;3.698;2022-07-30T14:23:14;29.50;38.00
70074;DHT22;57445;51.058;3.698;2022-07-30T14:25:41;28.90;38.60
70074;DHT22;57445;51.058;3.698;2022-07-30T14:28:08;29.50;38.20
70074;DHT22;57445;51.058;3.698;2022-07-30T14:30:36;29.30;38.60
70074;DHT22;57445;51.058;3.698;2022-07-30T14:33:04;29.20;38.90
70074;DHT22;57445;51.058;3.698;2022-07-30T14:35:32;29.50;38.30
70074;DHT22;57445;51.058;3.698;2022-07-30T14:37:59;29.20;38.20
70074;DHT22;57445;51.058;3.698;2022-07-30T14:40:28;28.90;39.10
70074;DHT22;57445;51.058;3.698;2022-07-30T14:42:55;29.20;39.00
70074;DHT22;57445;51.058;3.698;2022-07-30T14:45:21;29.70;38.50
70074;DHT22;57445;51.058;3.698;2022-07-30T14:47:48;30.50;37.30
70074;DHT22;57445;51.058;3.698;2022-07-30T14:50:17;30.40;37.10
70074;DHT22;57445;51.058;3.698;2022-07-30T14:52:44;29.90;37.90
70074;DHT22;57445;51.058;3.698;2022-07-30T14:55:12;29.90;38.10
70074;DHT22;57445;51.058;3.698;2022-07-30T14:57:41;30.00;38.20
70074;DHT22;57445;51.058;3.698;2022-07-30T15:00:10;30.30;37.40
70074;DHT22;57445;51.058;3.698;2022-07-30T15:02:38;29.90;37.70
70074;DHT22;57445;51.058;3.698;2022-07-30T15:05:07;29.40;38.70
70074;DHT22;57445;51.058;3.698;2022-07-30T15:07:35;29.70;38.30
70074;DHT22;57445;51.058;3.698;2022-07-30T15:10:03;29.40;38.50
70074;DHT22;57445;51.058;3.698;2022-07-30T15:12:32;29.70;38.70
70074;DHT22;57445;51.058;3.698;2022-07-30T15:14:59;30.10;38.50
70074;DHT22;57445;51.058;3.698;2022-07-30T15:17:29;30.40;37.50
70074;DHT22;57445;51.058;3.698;2022-07-30T15:19:57;30.40;37.40
70074;DHT22;57445;51.058;3.698;2022-07-30T15:22:26;30.00;38.00
70074;DHT22;57445;51.058;3.698;2022-07-30T15:24:57;29.70;38.30
70074;DHT22;57445;51.058;3.698;2022-07-30T15:27:27;29.80;38.20
70074;DHT22;57445;51.058;3.698;2022-07-30T15:29:55;30.20;38.00
70074;DHT22;57445;51.058;3.698;2022-07-30T15:32:24;30.80;37.50
70074;DHT22;57445;51.058;3.698;2022-07-30T15:34:51;30.70;37.30
70074;DHT22;57445;51.058;3.698;2022-07-30T15:37:18;31.00;37.40
70074;DHT22;57445;51.058;3.698;2022-07-30T15:39:45;31.30;36.70
70074;DHT22;57445;51.058;3.698;2022-07-30T15:42:13;31.40;36.80
70074;DHT22;57445;51.058;3.698;2022-07-30T15:44:40;31.70;35.80
70074;DHT22;57445;51.058;3.698;2022-07-30T15:47:08;31.60;36.10